Aérodrome :
LOGIN :

S'inscrire | Disclaimer

   EN    FR    IT 

 










Légende :    VFR   VFR Marginal   IFR   IFR Intensif   IFR Très Intensif
Visi : 
Plafond : 
>= 8 km
>= 3000ft
5 à 8 km
1000 à 3000 ft
1500m à 5 km
500 à 1000 ft
800 à 1500m
200 à 500 ft
< 800m
< 200 ft
Symboles :   Orages  Brouillard  Fortes neiges  Fortes précipitations  Vent > 20 kt
SIGMETs :   Divers  Orages  Givrage  Turbulence  Onde Orograph.  Cendres Volcan.






- Altitude de l'aérodrome : 33 ft
- Code IATA : MHZ


EGUN - RAF Mildenhall

METARs EXPIRÉS :
  • 072355Z 06011KT 9999 OVC020 11/10 A3017 RMK AO2A CIG 018 RWY28 SLP220 T01090098 10154 20109 401880103 57005 $
  • 072255Z 04009KT 9999 BKN021 11/10 A3018 RMK AO2A CIG 018 RWY28 SLP223 T01110097 $

TAF TAF EGUN
Valide du 07 à 20h jusqu'au 09 à 02h UTC


072000Z 0720/0902 06010KT 9999 SCT020 QNH3017INS
BECMG 0801/0803 05010KT 9999 SCT007 OVC012 QNH3017INS
BECMG 0806/0808 06012KT 9999 SCT012 BKN020 QNH3014INS
BECMG 0812/0813 06010G15KT 9999 SCT020 BKN060 QNH3012INS
TEMPO 0813/0819 06010G20KT
BECMG 0818/0819 05012KT 9999 SCT030 QNH3012INS TX20/0814Z TN07/0804Z



MET'MAP, la Météo Aéronautique d'un coup d'oeil ! - Copyright ORBIFLY Décembre 2007 - Disclaimer

ORBIFLY MET'MAP TEAM :

Programmation & Développement : Alexandra Zaïnal
Sur une idée originale de : Baudouin d'Aumeries
Soutien technique & logistique : Manuel Goepfert
Assistance : Marc-Olivier Méhu




SOURCES & CREDITS :

   NOAA